createdAt,value
2022-10-20T00:00:24.828Z,12.70
2022-10-20T00:02:54.424Z,12.60
2022-10-20T00:05:23.122Z,12.60
2022-10-20T00:07:53.263Z,12.60
2022-10-20T00:10:22.106Z,12.60
2022-10-20T00:12:50.790Z,12.50
2022-10-20T00:15:19.851Z,12.50
2022-10-20T00:17:53.286Z,12.50
2022-10-20T00:20:22.442Z,12.40
2022-10-20T00:22:52.680Z,12.40
2022-10-20T00:25:21.564Z,12.40
2022-10-20T00:27:50.372Z,12.40
2022-10-20T00:30:21.401Z,12.40
2022-10-20T00:32:52.389Z,12.40
2022-10-20T00:35:20.942Z,12.40
2022-10-20T00:37:49.821Z,12.40
2022-10-20T00:40:20.039Z,12.40
2022-10-20T00:42:49.409Z,12.40
2022-10-20T00:45:27.942Z,12.40
2022-10-20T00:48:01.687Z,12.40
2022-10-20T00:50:41.668Z,12.40
2022-10-20T00:53:12.062Z,12.30
2022-10-20T00:55:47.460Z,12.20
2022-10-20T00:58:16.815Z,12.10
2022-10-20T01:00:52.515Z,12.00
2022-10-20T01:03:29.239Z,12.00
2022-10-20T01:05:58.019Z,12.00
2022-10-20T01:08:26.775Z,11.90
2022-10-20T01:11:19.222Z,11.90
2022-10-20T01:14:08.418Z,11.90
2022-10-20T01:16:50.688Z,12.00
2022-10-20T01:20:32.575Z,12.00
2022-10-20T01:24:03.624Z,12.10
2022-10-20T01:27:18.735Z,12.00
2022-10-20T01:29:57.510Z,12.00
2022-10-20T01:32:37.200Z,11.90
2022-10-20T01:35:14.555Z,11.90
2022-10-20T01:37:53.442Z,11.80
2022-10-20T01:40:31.354Z,11.70
2022-10-20T01:43:05.978Z,11.60
2022-10-20T01:45:39.858Z,11.60
2022-10-20T01:48:12.110Z,11.40
2022-10-20T01:50:43.003Z,11.30
2022-10-20T01:53:37.146Z,11.20
2022-10-20T01:56:08.343Z,11.20
2022-10-20T01:59:20.428Z,11.10
2022-10-20T02:02:22.325Z,11.00
2022-10-20T02:05:23.754Z,11.00
2022-10-20T02:07:55.613Z,11.00
2022-10-20T02:10:36.806Z,10.90
2022-10-20T02:13:10.867Z,10.90
2022-10-20T02:15:44.934Z,11.00
2022-10-20T02:18:19.670Z,10.90
2022-10-20T02:20:53.949Z,10.90
2022-10-20T02:23:22.823Z,10.80
2022-10-20T02:25:56.326Z,10.80
2022-10-20T02:28:28.074Z,10.70
2022-10-20T02:30:58.733Z,10.70
2022-10-20T02:33:30.266Z,10.70
2022-10-20T02:36:01.104Z,10.60
2022-10-20T02:38:29.593Z,10.60
2022-10-20T02:40:58.282Z,10.60
2022-10-20T02:43:27.138Z,10.50
2022-10-20T02:45:55.858Z,10.50
2022-10-20T02:48:24.855Z,10.40
2022-10-20T02:50:55.141Z,10.40
2022-10-20T02:53:23.977Z,10.40
2022-10-20T02:55:52.782Z,10.40
2022-10-20T02:58:21.311Z,10.40
2022-10-20T03:00:51.768Z,10.30
2022-10-20T03:03:21.310Z,10.30
2022-10-20T03:05:50.035Z,10.40
2022-10-20T03:08:20.271Z,10.40
2022-10-20T03:10:49.258Z,10.40
2022-10-20T03:13:18.356Z,10.40
2022-10-20T03:15:47.187Z,10.40
2022-10-20T03:18:15.845Z,10.40
2022-10-20T03:20:45.847Z,10.40
2022-10-20T03:23:17.692Z,10.40
2022-10-20T03:25:50.413Z,10.40
2022-10-20T03:28:19.416Z,10.40
2022-10-20T03:30:48.205Z,10.40
2022-10-20T03:33:16.719Z,10.30
2022-10-20T03:35:45.151Z,10.30
2022-10-20T03:38:16.845Z,10.30
2022-10-20T03:40:45.472Z,10.30
2022-10-20T03:43:16.374Z,10.30
2022-10-20T03:45:45.673Z,10.30
2022-10-20T03:48:14.502Z,10.30
2022-10-20T03:50:44.149Z,10.30
2022-10-20T03:53:15.718Z,10.30
2022-10-20T03:55:44.614Z,10.30
2022-10-20T03:58:15.242Z,10.30
2022-10-20T04:00:43.853Z,10.30
2022-10-20T04:03:12.319Z,10.20
2022-10-20T04:05:41.108Z,10.30
2022-10-20T04:08:10.025Z,10.20
2022-10-20T04:10:38.871Z,10.20
2022-10-20T04:13:09.233Z,10.20
2022-10-20T04:15:39.432Z,10.20
2022-10-20T04:18:08.337Z,10.10
2022-10-20T04:20:39.341Z,10.10
2022-10-20T04:23:10.574Z,10.00
2022-10-20T04:25:46.005Z,10.00
2022-10-20T04:28:14.803Z,10.00
2022-10-20T04:30:46.090Z,10.00
2022-10-20T04:33:39.517Z,10.00
2022-10-20T04:36:13.043Z,10.00
2022-10-20T04:38:41.796Z,9.90
2022-10-20T04:41:12.131Z,10.00
2022-10-20T04:43:40.863Z,9.90
2022-10-20T04:46:12.607Z,9.90
2022-10-20T04:48:44.967Z,10.00
2022-10-20T04:51:16.512Z,9.90
2022-10-20T04:54:09.821Z,9.90
2022-10-20T04:56:38.659Z,9.90
2022-10-20T04:59:09.710Z,9.90
2022-10-20T05:01:43.127Z,9.90
2022-10-20T05:04:12.536Z,9.90
2022-10-20T05:06:41.152Z,9.90
2022-10-20T05:09:09.920Z,10.00
2022-10-20T05:11:39.210Z,10.10
2022-10-20T05:14:37.093Z,10.20
2022-10-20T05:17:09.331Z,10.30
2022-10-20T05:19:38.720Z,10.50
2022-10-20T05:22:07.324Z,10.60
2022-10-20T05:24:36.179Z,10.80
2022-10-20T05:27:04.839Z,10.90
2022-10-20T05:29:33.310Z,11.10
2022-10-20T05:32:01.912Z,11.20
2022-10-20T05:34:32.124Z,11.40
2022-10-20T05:37:04.070Z,11.60
2022-10-20T05:39:32.715Z,11.80
2022-10-20T05:42:07.754Z,11.90
2022-10-20T05:44:37.823Z,12.10
2022-10-20T05:47:06.555Z,12.30
2022-10-20T05:49:36.892Z,12.50
2022-10-20T05:52:05.647Z,12.80
2022-10-20T05:54:34.325Z,13.00
2022-10-20T05:57:03.029Z,13.10
2022-10-20T05:59:32.551Z,13.30
2022-10-20T06:02:24.087Z,13.50
2022-10-20T06:04:54.307Z,13.70
2022-10-20T06:07:22.863Z,14.00
2022-10-20T06:09:51.395Z,14.20
2022-10-20T06:12:20.099Z,14.40
2022-10-20T06:14:48.650Z,14.60
2022-10-20T06:17:17.259Z,14.80
2022-10-20T06:19:45.977Z,14.90
2022-10-20T06:22:16.125Z,15.00
2022-10-20T06:24:44.644Z,15.10
2022-10-20T06:27:13.062Z,15.10
2022-10-20T06:29:41.540Z,15.20
2022-10-20T06:32:10.223Z,15.30
2022-10-20T06:34:38.943Z,15.40
2022-10-20T06:37:12.502Z,15.40
2022-10-20T06:39:42.625Z,15.30
2022-10-20T06:42:12.214Z,15.10
2022-10-20T06:44:40.903Z,15.10
2022-10-20T06:47:10.496Z,15.10
2022-10-20T06:49:39.037Z,15.00
2022-10-20T06:52:33.426Z,14.80
2022-10-20T06:55:03.552Z,14.40
2022-10-20T06:57:33.382Z,14.10
2022-10-20T07:00:01.939Z,14.10
2022-10-20T07:02:30.494Z,14.10
2022-10-20T07:04:59.253Z,14.30
2022-10-20T07:07:27.976Z,14.70
2022-10-20T07:09:56.906Z,14.80
2022-10-20T07:12:26.959Z,14.60
2022-10-20T07:14:56.020Z,14.40
2022-10-20T07:17:25.972Z,14.30
2022-10-20T07:20:10.958Z,14.20
2022-10-20T07:22:39.626Z,14.00
2022-10-20T07:25:09.656Z,14.00
2022-10-20T07:27:39.535Z,14.00
2022-10-20T07:30:09.409Z,14.10
2022-10-20T07:32:38.331Z,14.50
2022-10-20T07:35:08.441Z,14.80
2022-10-20T07:37:37.104Z,15.20
2022-10-20T07:40:07.258Z,15.60
2022-10-20T07:42:36.046Z,15.90
2022-10-20T07:45:07.946Z,16.40
2022-10-20T07:47:39.263Z,16.60
2022-10-20T07:50:10.582Z,16.90
2022-10-20T07:52:57.994Z,17.20
2022-10-20T07:55:38.212Z,17.30
2022-10-20T07:58:08.390Z,17.30
2022-10-20T08:03:11.409Z,17.20
2022-10-20T08:05:39.946Z,17.20
2022-10-20T08:08:08.498Z,17.40
2022-10-20T08:10:45.695Z,17.40
2022-10-20T08:13:14.283Z,17.60
2022-10-20T08:15:54.965Z,17.70
2022-10-20T08:18:26.023Z,17.70
2022-10-20T08:20:54.787Z,17.80
2022-10-20T08:23:23.811Z,17.90
2022-10-20T08:25:57.755Z,18.10
2022-10-20T08:28:27.121Z,18.20
2022-10-20T08:30:57.211Z,18.20
2022-10-20T08:33:25.708Z,18.20
2022-10-20T08:35:54.365Z,18.30
2022-10-20T08:38:23.481Z,18.20
2022-10-20T08:40:52.172Z,18.20
2022-10-20T08:43:21.874Z,18.30
2022-10-20T08:45:56.876Z,18.40
2022-10-20T08:48:28.830Z,18.50
2022-10-20T08:50:58.462Z,18.60
2022-10-20T08:53:30.838Z,18.60
2022-10-20T08:55:59.426Z,18.80
2022-10-20T08:58:28.303Z,18.80
2022-10-20T09:01:01.850Z,18.70
2022-10-20T09:03:32.813Z,18.70
2022-10-20T09:06:10.233Z,18.90
2022-10-20T09:08:40.897Z,18.90
2022-10-20T09:11:17.395Z,19.00
2022-10-20T09:16:40.647Z,19.20
2022-10-20T09:19:19.218Z,19.30
2022-10-20T09:21:53.195Z,19.40
2022-10-20T09:24:24.378Z,19.30
2022-10-20T09:29:46.852Z,19.30
2022-10-20T09:32:48.619Z,19.10
2022-10-20T09:35:25.333Z,19.00
2022-10-20T09:38:04.354Z,18.80
2022-10-20T09:40:33.969Z,18.70
2022-10-20T09:43:14.049Z,18.40
2022-10-20T09:45:54.735Z,18.30
2022-10-20T09:48:29.895Z,18.30
2022-10-20T09:51:08.730Z,18.40
2022-10-20T09:53:50.162Z,18.40
2022-10-20T09:56:28.307Z,18.40
2022-10-20T09:59:26.573Z,18.50
2022-10-20T10:01:58.794Z,18.60
2022-10-20T10:04:47.311Z,18.60
2022-10-20T10:07:33.205Z,18.70
2022-10-20T10:10:08.143Z,18.60
2022-10-20T10:12:37.995Z,18.50
2022-10-20T10:15:24.435Z,18.40
2022-10-20T10:17:53.355Z,18.30
2022-10-20T10:20:42.796Z,18.40
2022-10-20T10:23:22.493Z,18.60
2022-10-20T10:25:52.925Z,18.70
2022-10-20T10:28:32.605Z,18.70
2022-10-20T10:31:24.410Z,18.60
2022-10-20T10:34:03.633Z,18.60
2022-10-20T10:36:37.547Z,18.70
2022-10-20T10:39:13.094Z,18.70
2022-10-20T10:42:01.794Z,18.70
2022-10-20T10:44:48.421Z,18.70
2022-10-20T10:47:40.232Z,18.70
2022-10-20T10:50:31.991Z,18.70
2022-10-20T10:53:20.295Z,18.80
2022-10-20T10:55:57.949Z,18.90
2022-10-20T10:58:44.197Z,19.10
2022-10-20T11:01:43.948Z,19.10
2022-10-20T11:04:44.432Z,19.20
2022-10-20T11:07:29.455Z,19.20
2022-10-20T11:10:12.099Z,19.00
2022-10-20T11:12:58.701Z,19.00
2022-10-20T11:15:45.566Z,19.10
2022-10-20T11:18:32.236Z,19.00
2022-10-20T11:21:14.195Z,19.10
2022-10-20T11:24:14.221Z,19.10
2022-10-20T11:26:50.424Z,19.10
2022-10-20T11:29:34.220Z,19.20
2022-10-20T11:32:19.496Z,19.20
2022-10-20T11:35:01.158Z,19.20
2022-10-20T11:37:33.703Z,19.30
2022-10-20T11:40:40.821Z,19.20
2022-10-20T11:43:23.877Z,19.20
2022-10-20T11:45:57.524Z,19.20
2022-10-20T11:48:32.906Z,19.10
2022-10-20T11:51:40.935Z,19.10
2022-10-20T11:54:37.273Z,19.10
2022-10-20T11:57:21.439Z,19.10
2022-10-20T12:00:33.139Z,19.10
2022-10-20T12:03:42.591Z,19.00
2022-10-20T12:06:43.350Z,19.00
2022-10-20T12:09:57.198Z,19.00
2022-10-20T12:12:34.564Z,19.00
2022-10-20T12:15:19.827Z,18.90
2022-10-20T12:17:52.431Z,18.90
2022-10-20T12:20:52.001Z,19.10
2022-10-20T12:24:05.992Z,19.20
2022-10-20T12:27:21.970Z,19.30
2022-10-20T12:29:54.718Z,19.20
2022-10-20T12:33:10.993Z,19.20
2022-10-20T12:36:16.287Z,19.10
2022-10-20T12:38:47.138Z,19.10
2022-10-20T12:41:30.208Z,19.10
2022-10-20T12:44:04.767Z,19.10
2022-10-20T12:47:07.935Z,19.10
2022-10-20T12:49:41.694Z,18.90
2022-10-20T12:52:22.122Z,18.80
2022-10-20T12:55:07.192Z,18.80
2022-10-20T12:57:41.793Z,18.70
2022-10-20T13:01:18.860Z,18.70
2022-10-20T13:03:52.878Z,18.70
2022-10-20T13:06:53.176Z,18.50
2022-10-20T13:09:25.614Z,18.50
2022-10-20T13:12:06.649Z,18.50
2022-10-20T13:14:55.730Z,18.60
2022-10-20T13:17:51.929Z,18.60
2022-10-20T13:20:30.942Z,18.70
2022-10-20T13:23:02.064Z,18.80
2022-10-20T13:25:42.058Z,18.80
2022-10-20T13:28:22.214Z,18.80
2022-10-20T13:31:45.183Z,18.80
2022-10-20T13:34:23.475Z,18.80
2022-10-20T13:37:21.669Z,18.70
2022-10-20T13:40:10.675Z,18.70
2022-10-20T13:42:55.592Z,18.60
2022-10-20T13:45:53.434Z,18.50
2022-10-20T13:48:43.687Z,18.40
2022-10-20T13:51:19.875Z,18.30
2022-10-20T13:53:54.388Z,18.30
2022-10-20T13:56:35.339Z,18.30
2022-10-20T13:59:07.040Z,18.30
2022-10-20T14:01:38.114Z,18.30
2022-10-20T14:04:26.294Z,18.30
2022-10-20T14:06:55.610Z,18.10
2022-10-20T14:09:26.973Z,18.10
2022-10-20T14:12:03.852Z,18.00
2022-10-20T14:14:33.619Z,17.90
2022-10-20T14:17:09.334Z,17.90
2022-10-20T14:19:38.131Z,17.70
2022-10-20T14:22:19.026Z,17.70
2022-10-20T14:24:50.786Z,17.60
2022-10-20T14:27:26.330Z,17.50
2022-10-20T14:29:56.177Z,17.40
2022-10-20T14:32:29.142Z,17.30
2022-10-20T14:35:01.192Z,17.30
2022-10-20T14:37:35.755Z,17.20
2022-10-20T14:40:09.808Z,17.20
2022-10-20T14:42:47.058Z,17.00
2022-10-20T14:45:22.520Z,16.90
2022-10-20T14:47:53.830Z,16.90
2022-10-20T14:50:27.100Z,16.70
2022-10-20T14:52:56.054Z,16.60
2022-10-20T14:55:38.672Z,16.50
2022-10-20T14:58:38.369Z,16.40
2022-10-20T15:01:26.269Z,16.10
2022-10-20T15:04:26.025Z,16.00
2022-10-20T15:07:08.748Z,15.90
2022-10-20T15:09:44.010Z,15.70
2022-10-20T15:12:19.426Z,15.60
2022-10-20T15:14:52.853Z,15.40
2022-10-20T15:17:37.577Z,15.40
2022-10-20T15:20:37.677Z,15.20
2022-10-20T15:23:10.647Z,15.10
2022-10-20T15:25:48.464Z,14.90
2022-10-20T15:28:39.282Z,14.80
2022-10-20T15:31:22.366Z,14.60
2022-10-20T15:33:57.855Z,14.50
2022-10-20T15:36:32.453Z,14.40
2022-10-20T15:39:01.872Z,14.20
2022-10-20T15:41:33.835Z,14.10
2022-10-20T15:44:14.601Z,14.00
2022-10-20T15:46:46.291Z,13.90
2022-10-20T15:49:15.969Z,13.80
2022-10-20T15:51:47.812Z,13.70
2022-10-20T15:54:20.589Z,13.60
2022-10-20T15:56:49.830Z,13.50
2022-10-20T15:59:18.697Z,13.50
2022-10-20T16:01:48.986Z,13.40
2022-10-20T16:04:23.218Z,13.30
2022-10-20T16:06:57.732Z,13.20
2022-10-20T16:09:28.019Z,13.20
2022-10-20T16:11:56.783Z,13.20
2022-10-20T16:14:25.797Z,13.10
2022-10-20T16:16:58.432Z,13.00
2022-10-20T16:19:27.114Z,12.90
2022-10-20T16:21:55.921Z,12.80
2022-10-20T16:24:24.680Z,12.80
2022-10-20T16:27:28.073Z,12.70
2022-10-20T16:29:56.578Z,12.70
2022-10-20T16:32:29.174Z,12.60
2022-10-20T16:35:01.727Z,12.50
2022-10-20T16:37:32.658Z,12.40
2022-10-20T16:40:01.867Z,12.30
2022-10-20T16:42:31.753Z,12.20
2022-10-20T16:45:00.648Z,12.10
2022-10-20T16:47:30.842Z,12.00
2022-10-20T16:49:59.659Z,11.80
2022-10-20T16:52:28.295Z,11.80
2022-10-20T16:54:57.002Z,11.80
2022-10-20T16:57:52.016Z,11.70
2022-10-20T17:00:20.875Z,11.70
2022-10-20T17:02:53.002Z,11.70
2022-10-20T17:05:26.383Z,11.70
2022-10-20T17:07:55.616Z,11.70
2022-10-20T17:10:24.298Z,11.60
2022-10-20T17:12:53.151Z,11.60
2022-10-20T17:15:21.751Z,11.50
2022-10-20T17:17:52.238Z,11.50
2022-10-20T17:20:21.209Z,11.40
2022-10-20T17:22:50.240Z,11.40
2022-10-20T17:25:19.256Z,11.40
2022-10-20T17:27:47.975Z,11.30
2022-10-20T17:30:16.861Z,11.30
2022-10-20T17:32:45.518Z,11.20
2022-10-20T17:35:16.021Z,11.10
2022-10-20T17:37:44.819Z,11.10
2022-10-20T17:40:14.030Z,11.00
2022-10-20T17:42:43.002Z,10.90
2022-10-20T17:45:12.262Z,10.80
2022-10-20T17:47:41.283Z,10.60
2022-10-20T17:50:11.011Z,10.50
2022-10-20T17:52:41.526Z,10.50
2022-10-20T17:55:10.745Z,10.30
2022-10-20T17:57:39.582Z,10.20
2022-10-20T18:00:16.412Z,10.20
2022-10-20T18:02:53.057Z,10.10
2022-10-20T18:05:21.750Z,10.10
2022-10-20T18:07:52.562Z,10.10
2022-10-20T18:12:51.346Z,10.00
2022-10-20T18:15:20.206Z,10.00
2022-10-20T18:17:48.904Z,10.00
2022-10-20T18:20:18.148Z,10.00
2022-10-20T18:22:55.576Z,10.00
2022-10-20T18:25:24.272Z,9.90
2022-10-20T18:27:54.761Z,9.80
2022-10-20T18:30:23.732Z,9.80
2022-10-20T18:32:52.558Z,9.80
2022-10-20T18:35:23.503Z,9.60
2022-10-20T18:37:57.672Z,9.60
2022-10-20T18:40:26.622Z,9.60
2022-10-20T18:42:55.325Z,9.50
2022-10-20T18:45:25.990Z,9.50
2022-10-20T18:47:55.151Z,9.40
2022-10-20T18:50:23.948Z,9.30
2022-10-20T18:52:54.817Z,9.10
2022-10-20T18:55:23.826Z,9.10
2022-10-20T18:57:52.612Z,9.00
2022-10-20T19:00:21.794Z,9.00
2022-10-20T19:02:55.780Z,9.00
2022-10-20T19:05:26.545Z,8.80
2022-10-20T19:07:56.997Z,8.70
2022-10-20T19:10:25.857Z,8.60
2022-10-20T19:12:54.639Z,8.50
2022-10-20T19:15:23.394Z,8.40
2022-10-20T19:17:52.192Z,8.30
2022-10-20T19:20:21.010Z,8.40
2022-10-20T19:22:49.891Z,8.30
2022-10-20T19:25:20.574Z,8.20
2022-10-20T19:27:49.357Z,8.20
2022-10-20T19:30:18.934Z,8.10
2022-10-20T19:32:51.499Z,8.10
2022-10-20T19:35:21.255Z,8.00
2022-10-20T19:37:49.786Z,7.90
2022-10-20T19:40:20.541Z,7.90
2022-10-20T19:42:49.338Z,8.00
2022-10-20T19:45:47.746Z,8.00
2022-10-20T19:48:38.431Z,8.00
2022-10-20T19:51:10.065Z,8.00
2022-10-20T19:53:40.059Z,8.00
2022-10-20T19:56:12.773Z,8.00
2022-10-20T19:58:46.406Z,8.10
2022-10-20T20:01:16.370Z,8.00
2022-10-20T20:03:45.995Z,8.00
2022-10-20T20:06:17.686Z,8.10
2022-10-20T20:08:48.099Z,8.10
2022-10-20T20:11:42.773Z,8.20
2022-10-20T20:14:18.483Z,8.20
2022-10-20T20:16:48.015Z,8.20
2022-10-20T20:19:17.785Z,8.30
2022-10-20T20:21:47.036Z,8.30
2022-10-20T20:24:16.204Z,8.40
2022-10-20T20:26:47.237Z,8.40
2022-10-20T20:29:16.954Z,8.30
2022-10-20T20:31:45.782Z,8.40
2022-10-20T20:34:14.581Z,8.40
2022-10-20T20:36:43.219Z,8.20
2022-10-20T20:39:13.293Z,8.20
2022-10-20T20:41:42.464Z,8.10
2022-10-20T20:44:12.928Z,8.10
2022-10-20T20:46:41.801Z,8.10
2022-10-20T20:49:10.892Z,8.10
2022-10-20T20:51:39.649Z,8.10
2022-10-20T20:54:09.266Z,8.00
2022-10-20T20:56:38.134Z,7.90
2022-10-20T20:59:17.314Z,7.80
2022-10-20T21:01:46.001Z,7.70
2022-10-20T21:04:14.842Z,7.70
2022-10-20T21:07:01.139Z,7.70
2022-10-20T21:09:31.497Z,7.60
2022-10-20T21:12:00.203Z,7.60
2022-10-20T21:14:31.122Z,7.60
2022-10-20T21:16:59.790Z,7.50
2022-10-20T21:19:28.989Z,7.50
2022-10-20T21:21:58.607Z,7.50
2022-10-20T21:24:33.030Z,7.40
2022-10-20T21:27:01.677Z,7.30
2022-10-20T21:29:32.911Z,7.20
2022-10-20T21:32:02.672Z,7.20
2022-10-20T21:34:41.001Z,7.10
2022-10-20T21:37:09.595Z,7.10
2022-10-20T21:39:38.085Z,7.10
2022-10-20T21:42:06.718Z,7.00
2022-10-20T21:44:42.683Z,7.10
2022-10-20T21:47:11.446Z,7.00
2022-10-20T21:49:40.235Z,7.00
2022-10-20T21:52:08.943Z,7.00
2022-10-20T21:54:38.011Z,6.90
2022-10-20T21:57:06.670Z,6.80
2022-10-20T21:59:35.690Z,6.90
2022-10-20T22:02:07.341Z,6.90
2022-10-20T22:04:35.933Z,6.90
2022-10-20T22:07:04.451Z,6.90
2022-10-20T22:09:33.216Z,6.80
2022-10-20T22:12:02.113Z,6.80
2022-10-20T22:14:31.112Z,6.80
2022-10-20T22:17:00.421Z,6.80
2022-10-20T22:19:31.778Z,6.80
2022-10-20T22:22:00.637Z,6.80
2022-10-20T22:24:30.742Z,6.70
2022-10-20T22:26:59.924Z,6.70
2022-10-20T22:29:29.355Z,6.60
2022-10-20T22:31:58.152Z,6.60
2022-10-20T22:34:26.799Z,6.50
2022-10-20T22:36:57.202Z,6.40
2022-10-20T22:39:26.056Z,6.30
2022-10-20T22:41:54.746Z,6.20
2022-10-20T22:44:23.719Z,6.20
2022-10-20T22:46:52.371Z,6.20
2022-10-20T22:49:21.492Z,6.20
2022-10-20T22:51:50.406Z,6.20
2022-10-20T22:54:21.309Z,6.10
2022-10-20T22:56:53.182Z,6.00
2022-10-20T22:59:22.487Z,6.00
2022-10-20T23:01:51.398Z,5.90
2022-10-20T23:04:20.545Z,5.90
2022-10-20T23:07:14.887Z,5.90
2022-10-20T23:09:44.922Z,5.90
2022-10-20T23:12:13.695Z,5.90
2022-10-20T23:14:42.515Z,5.80
2022-10-20T23:17:11.148Z,5.80
2022-10-20T23:19:39.865Z,5.80
2022-10-20T23:22:08.737Z,5.70
2022-10-20T23:24:37.426Z,5.60
2022-10-20T23:27:07.577Z,5.60
2022-10-20T23:29:36.436Z,5.70
2022-10-20T23:32:05.837Z,5.70
2022-10-20T23:37:08.827Z,5.50
2022-10-20T23:39:37.619Z,5.40
2022-10-20T23:42:07.894Z,5.40
2022-10-20T23:44:36.563Z,5.40
2022-10-20T23:47:05.694Z,5.30
2022-10-20T23:49:34.604Z,5.20
2022-10-20T23:52:03.391Z,5.10
2022-10-20T23:54:32.213Z,5.10
2022-10-20T23:57:01.624Z,5.00
2022-10-20T23:59:32.124Z,5.00
